Aérodrome :
LOGIN :

S'inscrire | Disclaimer

   EN    FR    IT 

 










Légende :    VFR   VFR Marginal   IFR   IFR Intensif   IFR Très Intensif
Visi : 
Plafond : 
>= 8 km
>= 3000ft
5 à 8 km
1000 à 3000 ft
1500m à 5 km
500 à 1000 ft
800 à 1500m
200 à 500 ft
< 800m
< 200 ft
Symboles :   Orages  Brouillard  Fortes neiges  Fortes précipitations  Vent > 20 kt
SIGMETs :   Divers  Orages  Givrage  Turbulence  Onde Orograph.  Cendres Volcan.






- Altitude de l'aérodrome : 614 ft
- Code IATA : CRL


EBCI - Charleroi

DERNIER METAR :
  • 140050Z 16010KT 9999 BKN022 05/03 Q0997 NOSIG

METARs EXPIRÉS :
  • 140020Z 16009KT 9999 BKN016 05/03 Q0998 NOSIG
  • 132350Z 16008KT 9999 BKN016 05/03 Q0998 NOSIG
  • 132320Z 17008KT 140V200 9999 BKN013 06/03 Q0998 NOSIG
  • 132250Z 16009KT 140V200 9999 BKN013 05/04 Q0998 NOSIG
  • 132220Z 17008KT 9999 BKN011 05/04 Q0998 NOSIG

TAF TAF EBCI
Valide du 14 à 00h jusqu'au 15 à 06h UTC


132310Z 1400/1506 15010KT 9999 SCT015
TEMPO 1406/1409 3500 -RADZ BKN008
PROB30
TEMPO 1409/1414 BKN008
BECMG 1421/1423 03008KT
PROB40 1504/1506 BKN006



MET'MAP, la Météo Aéronautique d'un coup d'oeil ! - Copyright ORBIFLY Décembre 2007 - Disclaimer

ORBIFLY MET'MAP TEAM :

Programmation & Développement : Alexandra Zaïnal
Conception & Développement : Baudouin d'Aumeries
Co-Programmation & Développement : Marc-Olivier Méhu
Soutien technique & logistique : Manuel Goepfert

Contact : metmap@orbifly.com




SOURCES & CREDITS :

   NOAA